Impacts TAF Board
For situational awareness. Not to be used for flight planning purposes.
IDs:

KLRD - Laredo Intl Apt, TX, US

Issued at 1120 UTC 23 Sep 2020
Updated at 1447 UTC 23 Sep 2020
Potential Impact None Slight Moderate High
Time1356Z 23/15Z 23/16Z 23/17Z 23/18Z 23/19Z 23/20Z 23/21Z 23/22Z 23/23Z 24/00Z 24/01Z 24/02Z 24/03Z>>
Type OBS PRVL PRVL PRVL PRVL PRVL PRVL PRVL PRVL PRVL PRVL PRVL PRVL PRVL
VIS 10 >6 >6 >6 >6 >6 >6 >6 >6 >6 >6 >6 >6 >6
CIG -- -- -- -- -- -- -- -- -- -- -- -- -- --
Cover SKC FEW FEW FEW FEW FEW FEW FEW FEW FEW FEW FEW FEW FEW
FltCat VFR VFR VFR VFR VFR VFR VFR VFR VFR VFR VFR VFR VFR VFR
WX -- -- -- -- -- -- -- -- -- -- -- -- -- --
WDir 350 VRB VRB VRB VRB VRB VRB VRB VRB VRB VRB VRB VRB VRB
WSpd 4 4 4 4 4 4 4 4 4 4 4 4 4 4
WGst -- -- -- -- -- -- -- -- -- -- -- -- -- --
R14/32
XWnd 2 VRB VRB VRB VRB VRB VRB VRB VRB VRB VRB VRB VRB VRB
HWnd -4 VRB VRB VRB VRB VRB VRB VRB VRB VRB VRB VRB VRB VRB
R17/35
XWnd -1 VRB VRB VRB VRB VRB VRB VRB VRB VRB VRB VRB VRB VRB
HWnd -4 VRB VRB VRB VRB VRB VRB VRB VRB VRB VRB VRB VRB VRB
Raw TAF
KLRD 231120Z 2312/2412 VRB04KT P6SM FEW060 AMD NOT SKED

Raw METAR
KLRD 231356Z 35004KT 10SM SKC 23/21 A2996
KLRD 231255Z 01004KT 10SM SKC 21/20 A2995
KLRD 231155Z 33003KT 10SM SKC 21/19 A2993

METAR Board
Radar Display
Forecast Discussion
For situational awareness. Not to be used for flight planning purposes.